createdAt,value
2023-02-21T00:02:54.961Z,4.6
2023-02-21T00:12:54.964Z,4.5
2023-02-21T00:22:54.884Z,4.6
2023-02-21T00:32:55.031Z,4.4
2023-02-21T00:42:54.887Z,4.4
2023-02-21T00:52:54.859Z,4.3
2023-02-21T01:02:54.878Z,4.2
2023-02-21T01:12:54.862Z,4.1
2023-02-21T01:22:54.830Z,4
2023-02-21T01:32:54.849Z,4
2023-02-21T01:42:54.835Z,4.1
2023-02-21T01:52:54.768Z,4.2
2023-02-21T02:02:54.807Z,3.9
2023-02-21T02:12:54.751Z,3.9
2023-02-21T02:22:54.744Z,3.8
2023-02-21T02:32:54.796Z,3.6
2023-02-21T02:42:54.747Z,3.5
2023-02-21T02:52:54.726Z,3.4
2023-02-21T03:02:54.745Z,3.3
2023-02-21T03:12:54.670Z,3.1
2023-02-21T03:22:54.687Z,2.9
2023-02-21T03:32:54.726Z,2.9
2023-02-21T03:42:54.688Z,3
2023-02-21T03:52:54.673Z,3
2023-02-21T04:02:54.688Z,3.1
2023-02-21T04:12:54.642Z,2.8
2023-02-21T04:23:03.241Z,2.7
2023-02-21T04:32:54.771Z,2.7
2023-02-21T04:42:54.620Z,2.5
2023-02-21T04:52:54.664Z,2.4
2023-02-21T05:02:54.609Z,2.2
2023-02-21T05:12:54.609Z,1.9
2023-02-21T05:22:57.684Z,1.8
2023-02-21T05:32:54.597Z,1.9
2023-02-21T05:42:54.579Z,2.1
2023-02-21T05:52:54.528Z,2
2023-02-21T06:02:54.535Z,2.1
2023-02-21T06:12:54.524Z,2.2
2023-02-21T06:22:54.496Z,2.1
2023-02-21T06:32:54.509Z,1.8
2023-02-21T06:42:54.528Z,1.9
2023-02-21T06:52:54.481Z,2.1
2023-02-21T07:02:54.470Z,2.2
2023-02-21T07:12:54.488Z,2.3
2023-02-21T07:22:54.493Z,2.4
2023-02-21T07:32:54.485Z,2.4
2023-02-21T07:42:54.429Z,2.5
2023-02-21T07:52:54.397Z,2.8
2023-02-21T08:02:54.423Z,3.2
2023-02-21T08:12:54.436Z,3.6
2023-02-21T08:22:54.410Z,4
2023-02-21T08:32:54.372Z,4.4
2023-02-21T08:42:54.382Z,4.9
2023-02-21T08:52:54.336Z,5.3
2023-02-21T09:02:54.348Z,5.6
2023-02-21T09:12:54.323Z,5.9
2023-02-21T09:22:54.323Z,6.5
2023-02-21T09:32:55.012Z,6.9
2023-02-21T09:42:54.271Z,7.2
2023-02-21T09:52:54.246Z,7.8
2023-02-21T10:02:54.256Z,8.3
2023-02-21T10:12:54.243Z,10.1
2023-02-21T10:22:54.231Z,12.8
2023-02-21T10:32:54.199Z,15
2023-02-21T10:42:54.196Z,16.5
2023-02-21T10:52:54.163Z,17.5
2023-02-21T11:02:54.091Z,18.4
2023-02-21T11:12:54.123Z,18.7
2023-02-21T11:22:54.070Z,19.5
2023-02-21T11:32:55.908Z,20.5
2023-02-21T11:42:54.096Z,21.7
2023-02-21T11:52:54.019Z,22.1
2023-02-21T12:02:54.076Z,22.5
2023-02-21T12:12:54.000Z,22.8
2023-02-21T12:22:53.957Z,22.5
2023-02-21T12:32:53.984Z,22.6
2023-02-21T12:42:53.963Z,21.9
2023-02-21T12:52:53.900Z,21.6
2023-02-21T13:02:53.931Z,21.9
2023-02-21T13:12:53.893Z,22.5
2023-02-21T13:22:53.834Z,23
2023-02-21T13:32:53.843Z,23.7
2023-02-21T13:42:53.813Z,23.7
2023-02-21T13:52:53.751Z,24
2023-02-21T14:02:53.774Z,24.1
2023-02-21T14:12:53.763Z,24
2023-02-21T14:22:53.685Z,24
2023-02-21T14:32:53.733Z,23.7
2023-02-21T14:42:53.682Z,23.1
2023-02-21T14:52:53.642Z,22.6
2023-02-21T15:02:53.668Z,22.2
2023-02-21T15:12:53.659Z,21.7
2023-02-21T15:22:53.569Z,21.2
2023-02-21T15:32:53.602Z,21.3
2023-02-21T15:42:53.641Z,21.5
2023-02-21T15:52:53.662Z,21.4
2023-02-21T16:02:53.664Z,21.3
2023-02-21T16:12:53.496Z,20.7
2023-02-21T16:23:07.181Z,20
2023-02-21T16:32:53.458Z,18.9
2023-02-21T16:42:53.434Z,17.7
2023-02-21T16:52:53.388Z,16.6
2023-02-21T17:02:53.440Z,15.7
2023-02-21T17:12:53.375Z,15
2023-02-21T17:22:53.321Z,14.4
2023-02-21T17:32:53.312Z,13.9
2023-02-21T17:42:53.324Z,13.5
2023-02-21T17:52:53.257Z,13.2
2023-02-21T18:02:53.278Z,12.9
2023-02-21T18:22:53.212Z,12.3
2023-02-21T18:32:53.253Z,12
2023-02-21T18:42:53.200Z,11.7
2023-02-21T18:52:53.171Z,11.4
2023-02-21T19:02:53.192Z,11.2
2023-02-21T19:12:53.166Z,11
2023-02-21T19:22:53.104Z,10.8
2023-02-21T19:32:53.143Z,10.6
2023-02-21T19:42:53.109Z,10.3
2023-02-21T19:52:53.057Z,10.1
2023-02-21T20:02:53.141Z,9.9
2023-02-21T20:12:53.075Z,9.8
2023-02-21T20:22:53.025Z,9.6
2023-02-21T20:32:53.011Z,9.4
2023-02-21T20:42:53.032Z,9.2
2023-02-21T20:52:52.981Z,9.1
2023-02-21T21:02:53.007Z,9
2023-02-21T21:12:52.983Z,8.8
2023-02-21T21:22:52.933Z,8.6
2023-02-21T21:32:52.970Z,8.5
2023-02-21T21:42:52.945Z,8.5
2023-02-21T21:52:52.876Z,8.3
2023-02-21T22:02:53.030Z,8.3
2023-02-21T22:12:52.872Z,8.2
2023-02-21T22:22:52.818Z,8.1
2023-02-21T22:32:52.866Z,8
2023-02-21T22:42:52.853Z,7.8
2023-02-21T22:52:52.778Z,7.7
2023-02-21T23:02:52.880Z,7.6
2023-02-21T23:12:52.823Z,7.4
2023-02-21T23:22:52.729Z,7.2
2023-02-21T23:32:52.772Z,7
2023-02-21T23:42:52.711Z,6.9
2023-02-21T23:52:52.682Z,6.7
